createdAt,value
2018-01-11T00:00:23.654Z,70.72
2018-01-11T00:00:58.149Z,69.37
2018-01-11T00:01:32.254Z,85.05
2018-01-11T00:02:06.279Z,70.90
2018-01-11T00:02:40.148Z,75.68
2018-01-11T00:03:14.293Z,73.05
2018-01-11T00:03:48.316Z,82.22
2018-01-11T00:04:23.588Z,64.25
2018-01-11T00:04:57.719Z,81.18
2018-01-11T00:05:31.636Z,53.42
2018-01-11T00:06:05.534Z,64.87
2018-01-11T00:06:39.543Z,93.32
2018-01-11T00:07:13.573Z,81.25
2018-01-11T00:07:47.697Z,58.83
2018-01-11T00:08:21.646Z,122.13
2018-01-11T00:08:56.273Z,104.15
2018-01-11T00:09:30.520Z,70.93
2018-01-11T00:10:04.473Z,60.92
2018-01-11T00:10:38.352Z,67.65
2018-01-11T00:11:12.386Z,76.25
2018-01-11T00:11:46.550Z,77.32
2018-01-11T00:12:20.445Z,62.10
2018-01-11T00:12:54.308Z,74.40
2018-01-11T00:13:28.765Z,65.70
2018-01-11T00:14:02.663Z,66.05
2018-01-11T00:14:36.711Z,75.30
2018-01-11T00:15:10.692Z,74.93
2018-01-11T00:15:44.643Z,84.07
2018-01-11T00:16:18.592Z,90.72
2018-01-11T00:16:52.562Z,62.58
2018-01-11T00:17:26.654Z,85.70
2018-01-11T00:18:00.719Z,90.87
2018-01-11T00:18:34.690Z,63.55
2018-01-11T00:19:08.649Z,74.10
2018-01-11T00:19:42.644Z,72.07
2018-01-11T00:20:16.717Z,72.80
2018-01-11T00:20:50.645Z,66.00
2018-01-11T00:21:24.623Z,67.03
2018-01-11T00:22:01.440Z,68.70
2018-01-11T00:22:35.501Z,75.62
2018-01-11T00:23:09.526Z,80.82
2018-01-11T00:23:43.536Z,66.25
2018-01-11T00:24:17.494Z,56.85
2018-01-11T00:24:51.610Z,55.60
2018-01-11T00:25:25.680Z,62.33
2018-01-11T00:25:59.692Z,62.80
2018-01-11T00:26:35.479Z,68.57
2018-01-11T00:27:09.524Z,66.45
2018-01-11T00:27:43.661Z,75.53
2018-01-11T00:28:17.616Z,65.65
2018-01-11T00:28:51.660Z,92.10
2018-01-11T00:29:25.617Z,56.60
2018-01-11T00:29:59.857Z,71.80
2018-01-11T00:30:33.831Z,58.63
2018-01-11T00:31:07.832Z,54.40
2018-01-11T00:31:42.028Z,68.22
2018-01-11T00:32:15.984Z,73.35
2018-01-11T00:32:49.893Z,49.63
2018-01-11T00:33:24.108Z,49.20
2018-01-11T00:33:58.040Z,44.17
2018-01-11T00:34:31.918Z,45.78
2018-01-11T00:35:05.997Z,48.35
2018-01-11T00:35:40.720Z,53.63
2018-01-11T00:36:14.643Z,57.38
2018-01-11T00:36:48.503Z,45.70
2018-01-11T00:37:22.416Z,62.55
2018-01-11T00:37:56.292Z,52.92
2018-01-11T00:38:30.246Z,62.75
2018-01-11T00:39:04.199Z,59.35
2018-01-11T00:39:38.220Z,66.70
2018-01-11T00:40:12.121Z,49.80
2018-01-11T00:40:46.009Z,54.78
2018-01-11T00:41:19.908Z,61.63
2018-01-11T00:41:56.737Z,53.63
2018-01-11T00:42:33.372Z,62.33
2018-01-11T00:43:07.224Z,64.15
2018-01-11T00:43:41.116Z,55.95
2018-01-11T00:44:15.014Z,66.05
2018-01-11T00:44:48.951Z,65.28
2018-01-11T00:45:22.897Z,58.28
2018-01-11T00:45:56.874Z,76.53
2018-01-11T00:46:31.225Z,65.97
2018-01-11T00:47:05.301Z,57.97
2018-01-11T00:47:39.348Z,68.87
2018-01-11T00:48:13.348Z,53.87
2018-01-11T00:48:47.767Z,61.58
2018-01-11T00:49:21.719Z,67.62
2018-01-11T00:49:55.613Z,49.22
2018-01-11T00:50:29.585Z,62.92
2018-01-11T00:51:03.584Z,50.38
2018-01-11T00:51:37.641Z,56.10
2018-01-11T00:52:11.635Z,61.22
2018-01-11T00:52:45.548Z,59.83
2018-01-11T00:53:19.441Z,56.88
2018-01-11T00:53:53.316Z,66.35
2018-01-11T00:54:27.233Z,64.80
2018-01-11T00:55:01.212Z,58.70
2018-01-11T00:55:35.114Z,56.17
2018-01-11T00:56:09.040Z,57.13
2018-01-11T00:56:43.045Z,51.55
2018-01-11T00:57:16.930Z,73.25
2018-01-11T00:57:50.837Z,51.20
2018-01-11T00:58:24.776Z,47.08
2018-01-11T00:58:58.679Z,54.25
2018-01-11T00:59:32.752Z,62.00
2018-01-11T01:00:06.697Z,49.90
2018-01-11T01:00:40.876Z,47.53
2018-01-11T01:01:14.778Z,54.75
2018-01-11T01:01:48.684Z,67.50
2018-01-11T01:02:22.604Z,55.95
2018-01-11T01:02:56.540Z,55.83
2018-01-11T01:03:30.497Z,50.10
2018-01-11T01:04:04.928Z,64.75
2018-01-11T01:04:38.879Z,58.70
2018-01-11T01:05:12.858Z,51.30
2018-01-11T01:05:46.796Z,68.43
2018-01-11T01:06:20.726Z,54.58
2018-01-11T01:06:54.673Z,64.37
2018-01-11T01:07:28.524Z,90.80
2018-01-11T01:08:02.469Z,53.10
2018-01-11T01:08:36.408Z,47.92
2018-01-11T01:09:10.283Z,44.25
2018-01-11T01:09:44.439Z,61.63
2018-01-11T01:10:18.465Z,47.38
2018-01-11T01:10:52.579Z,58.92
2018-01-11T01:11:26.486Z,49.20
2018-01-11T01:12:00.607Z,53.40
2018-01-11T01:12:34.488Z,59.17
2018-01-11T01:13:08.410Z,59.40
2018-01-11T01:13:42.766Z,50.55
2018-01-11T01:14:16.637Z,50.08
2018-01-11T01:14:50.506Z,50.85
2018-01-11T01:15:24.437Z,57.33
2018-01-11T01:15:58.327Z,54.42
2018-01-11T01:16:32.245Z,50.10
2018-01-11T01:17:06.183Z,49.03
2018-01-11T01:17:40.114Z,57.13
2018-01-11T01:18:14.029Z,55.55
2018-01-11T01:18:48.003Z,45.60
2018-01-11T01:19:22.002Z,54.80
2018-01-11T01:19:55.919Z,53.17
2018-01-11T01:20:29.861Z,54.05
2018-01-11T01:21:03.893Z,48.53
2018-01-11T01:21:37.776Z,54.80
2018-01-11T01:22:11.886Z,56.92
2018-01-11T01:22:45.776Z,58.38
2018-01-11T01:23:19.673Z,72.50
2018-01-11T01:23:53.560Z,58.63
2018-01-11T01:24:27.454Z,69.87
2018-01-11T01:25:01.348Z,60.17
2018-01-11T01:25:35.214Z,47.00
2018-01-11T01:26:09.170Z,52.17
2018-01-11T01:26:43.039Z,51.55
2018-01-11T01:27:17.780Z,54.83
2018-01-11T01:27:51.776Z,43.42
2018-01-11T01:28:25.643Z,58.47
2018-01-11T01:28:59.539Z,49.67
2018-01-11T01:29:33.387Z,78.18
2018-01-11T01:30:07.343Z,82.60
2018-01-11T01:30:41.290Z,81.00
2018-01-11T01:31:15.249Z,63.38
2018-01-11T01:31:49.209Z,71.03
2018-01-11T01:32:23.137Z,63.67
2018-01-11T01:32:57.278Z,73.62
2018-01-11T01:33:31.316Z,79.28
2018-01-11T01:34:05.248Z,63.28
2018-01-11T01:34:39.330Z,71.57
2018-01-11T01:35:13.204Z,78.32
2018-01-11T01:35:47.131Z,48.83
2018-01-11T01:36:21.060Z,45.63
2018-01-11T01:36:54.951Z,61.28
2018-01-11T01:37:28.927Z,60.08
2018-01-11T01:38:02.905Z,52.90
2018-01-11T01:38:36.868Z,62.22
2018-01-11T01:39:10.795Z,62.33
2018-01-11T01:39:44.893Z,50.63
2018-01-11T01:40:18.866Z,57.00
2018-01-11T01:40:52.785Z,44.40
2018-01-11T01:41:26.964Z,41.15
2018-01-11T01:42:00.888Z,51.45
2018-01-11T01:42:34.753Z,53.40
2018-01-11T01:43:09.629Z,41.83
2018-01-11T01:43:43.802Z,45.60
2018-01-11T01:44:17.754Z,72.20
2018-01-11T01:44:51.684Z,47.30
2018-01-11T01:45:25.651Z,41.58
2018-01-11T01:45:59.552Z,47.28
2018-01-11T01:46:33.481Z,49.08
2018-01-11T01:47:07.394Z,38.33
2018-01-11T01:47:41.350Z,50.03
2018-01-11T01:48:15.272Z,43.97
2018-01-11T01:48:49.167Z,40.35
2018-01-11T01:49:23.099Z,38.90
2018-01-11T01:49:57.347Z,41.53
2018-01-11T01:50:32.178Z,40.88
2018-01-11T01:51:06.133Z,41.08
2018-01-11T01:51:40.071Z,44.40
2018-01-11T01:52:13.951Z,49.63
2018-01-11T01:52:47.838Z,50.90
2018-01-11T01:53:21.719Z,51.58
2018-01-11T01:53:55.617Z,50.08
2018-01-11T01:54:29.499Z,59.40
2018-01-11T01:55:03.526Z,52.88
2018-01-11T01:55:37.479Z,46.50
2018-01-11T01:56:11.387Z,42.33
2018-01-11T01:56:45.394Z,63.53
2018-01-11T01:57:19.414Z,43.67
2018-01-11T01:57:53.349Z,51.70
2018-01-11T01:58:28.004Z,38.42
2018-01-11T01:59:01.919Z,36.13
2018-01-11T01:59:35.924Z,41.45
2018-01-11T02:00:10.119Z,46.67
2018-01-11T02:00:44.028Z,49.25
2018-01-11T02:01:18.056Z,43.40
2018-01-11T02:01:51.987Z,44.42
2018-01-11T02:02:26.050Z,43.13
2018-01-11T02:02:59.932Z,52.30
2018-01-11T02:03:33.826Z,43.70
2018-01-11T02:04:07.771Z,41.13
2018-01-11T02:04:41.649Z,33.65
2018-01-11T02:05:15.565Z,45.78
2018-01-11T02:05:49.556Z,42.75
2018-01-11T02:06:23.579Z,42.75
2018-01-11T02:06:57.659Z,40.33
2018-01-11T02:07:31.560Z,36.65
2018-01-11T02:08:05.535Z,34.08
2018-01-11T02:08:39.457Z,37.45
2018-01-11T02:09:13.375Z,38.50
2018-01-11T02:09:47.355Z,40.08
2018-01-11T02:10:21.452Z,39.75
2018-01-11T02:10:55.377Z,39.88
2018-01-11T02:11:29.242Z,34.97
2018-01-11T02:12:03.184Z,54.38
2018-01-11T02:12:37.130Z,40.15
2018-01-11T02:13:11.213Z,39.38
2018-01-11T02:13:45.170Z,35.35
2018-01-11T02:14:19.137Z,40.00
2018-01-11T02:14:53.092Z,43.60
2018-01-11T02:15:27.267Z,42.47
2018-01-11T02:16:01.148Z,43.95
2018-01-11T02:16:35.080Z,41.30
2018-01-11T02:17:09.130Z,39.00
2018-01-11T02:17:43.231Z,35.92
2018-01-11T02:18:17.135Z,36.20
2018-01-11T02:18:50.997Z,41.42
2018-01-11T02:19:25.060Z,35.50
2018-01-11T02:19:59.015Z,38.40
2018-01-11T02:20:32.911Z,45.80
2018-01-11T02:21:06.783Z,43.25
2018-01-11T02:21:40.678Z,43.65
2018-01-11T02:22:14.675Z,32.50
2018-01-11T02:22:48.892Z,32.38
2018-01-11T02:23:22.804Z,31.23
2018-01-11T02:23:56.713Z,31.27
2018-01-11T02:24:30.587Z,32.42
2018-01-11T02:25:04.541Z,32.83
2018-01-11T02:25:38.428Z,34.05
2018-01-11T02:26:12.345Z,34.08
2018-01-11T02:26:46.266Z,32.05
2018-01-11T02:27:20.204Z,33.63
2018-01-11T02:27:54.077Z,36.08
2018-01-11T02:28:28.089Z,37.83
2018-01-11T02:29:01.965Z,34.72
2018-01-11T02:29:35.984Z,31.75
2018-01-11T02:30:09.879Z,34.05
2018-01-11T02:30:43.777Z,34.60
2018-01-11T02:31:17.684Z,31.87
2018-01-11T02:31:51.578Z,27.27
2018-01-11T02:32:25.571Z,30.25
2018-01-11T02:32:59.453Z,31.55
2018-01-11T02:33:33.350Z,31.12
2018-01-11T02:34:07.325Z,39.47
2018-01-11T02:34:41.360Z,30.25
2018-01-11T02:35:15.343Z,29.98
2018-01-11T02:35:49.234Z,33.38
2018-01-11T02:36:23.145Z,33.45
2018-01-11T02:36:57.137Z,31.23
2018-01-11T02:37:31.085Z,32.58
2018-01-11T02:38:04.980Z,30.02
2018-01-11T02:38:38.935Z,36.35
2018-01-11T02:39:12.930Z,29.87
2018-01-11T02:39:46.951Z,33.38
2018-01-11T02:40:20.924Z,34.55
2018-01-11T02:40:54.925Z,31.05
2018-01-11T02:41:28.916Z,32.58
2018-01-11T02:42:02.777Z,34.55
2018-01-11T02:42:36.758Z,31.20
2018-01-11T02:43:10.657Z,32.95
2018-01-11T02:43:44.581Z,28.08
2018-01-11T02:44:18.596Z,33.33
2018-01-11T02:44:52.480Z,33.08
2018-01-11T02:45:26.377Z,29.45
2018-01-11T02:46:00.257Z,35.92
2018-01-11T02:46:34.260Z,34.63
2018-01-11T02:47:08.156Z,30.48
2018-01-11T02:47:42.148Z,32.85
2018-01-11T02:48:16.078Z,31.75
2018-01-11T02:48:49.999Z,31.92
2018-01-11T02:49:23.972Z,34.33
2018-01-11T02:49:58.753Z,36.67
2018-01-11T02:50:32.717Z,33.80
2018-01-11T02:51:06.644Z,30.95
2018-01-11T02:51:40.549Z,31.55
2018-01-11T02:52:14.716Z,33.30
2018-01-11T02:52:48.702Z,34.90
2018-01-11T02:53:22.666Z,30.80
2018-01-11T02:53:56.573Z,32.70
2018-01-11T02:54:30.457Z,34.80
2018-01-11T02:55:04.387Z,31.90
2018-01-11T02:55:38.268Z,31.00
2018-01-11T02:56:12.179Z,32.42
2018-01-11T02:56:46.310Z,32.90
2018-01-11T02:57:20.165Z,30.10
2018-01-11T02:57:54.109Z,30.73
2018-01-11T02:58:28.007Z,29.77
2018-01-11T02:59:01.906Z,33.42
2018-01-11T02:59:35.903Z,32.75
2018-01-11T03:00:10.033Z,29.73
2018-01-11T03:00:44.013Z,33.50
2018-01-11T03:01:17.947Z,34.80
2018-01-11T03:01:51.869Z,37.60
2018-01-11T03:02:25.850Z,32.75
2018-01-11T03:02:59.795Z,31.73
2018-01-11T03:03:36.464Z,30.98
2018-01-11T03:04:11.145Z,31.77
2018-01-11T03:04:45.116Z,35.13
2018-01-11T03:05:19.043Z,34.40
2018-01-11T03:05:53.090Z,34.70
2018-01-11T03:06:26.957Z,36.08
2018-01-11T03:07:00.872Z,35.90
2018-01-11T03:07:34.774Z,34.33
2018-01-11T03:08:08.714Z,32.08
2018-01-11T03:08:42.622Z,29.77
2018-01-11T03:09:16.696Z,30.58
2018-01-11T03:09:50.627Z,33.08
2018-01-11T03:10:24.570Z,35.72
2018-01-11T03:10:58.518Z,36.15
2018-01-11T03:11:32.397Z,37.15
2018-01-11T03:12:07.157Z,34.38
2018-01-11T03:12:41.928Z,40.30
2018-01-11T03:13:16.421Z,35.67
2018-01-11T03:13:50.668Z,44.05
2018-01-11T03:14:24.801Z,37.25
2018-01-11T03:14:58.968Z,39.80
2018-01-11T03:15:32.853Z,35.92
2018-01-11T03:16:06.706Z,34.92
2018-01-11T03:16:40.787Z,33.50
2018-01-11T03:17:14.750Z,34.70
2018-01-11T03:17:48.664Z,37.05
2018-01-11T03:18:22.576Z,36.55
2018-01-11T03:18:56.448Z,36.25
2018-01-11T03:19:30.404Z,37.35
2018-01-11T03:20:04.397Z,36.63
2018-01-11T03:20:38.323Z,34.42
2018-01-11T03:21:12.249Z,35.65
2018-01-11T03:21:46.231Z,40.25
2018-01-11T03:22:20.177Z,35.60
2018-01-11T03:22:54.278Z,30.83
2018-01-11T03:23:28.172Z,33.70
2018-01-11T03:24:02.098Z,36.60
2018-01-11T03:24:36.009Z,32.88
2018-01-11T03:25:09.903Z,37.53
2018-01-11T03:25:43.856Z,39.88
2018-01-11T03:26:17.781Z,32.60
2018-01-11T03:26:51.672Z,33.85
2018-01-11T03:27:25.580Z,37.00
2018-01-11T03:27:59.535Z,33.17
2018-01-11T03:28:33.460Z,40.35
2018-01-11T03:29:07.394Z,42.13
2018-01-11T03:29:41.283Z,39.42
2018-01-11T03:30:15.429Z,43.95
2018-01-11T03:30:49.381Z,43.30
2018-01-11T03:31:23.569Z,39.70
2018-01-11T03:31:57.537Z,36.75
2018-01-11T03:32:31.454Z,37.10
2018-01-11T03:33:05.505Z,34.85
2018-01-11T03:33:39.639Z,38.35
2018-01-11T03:34:13.543Z,33.75
2018-01-11T03:34:47.520Z,39.50
2018-01-11T03:35:21.409Z,36.63
2018-01-11T03:35:55.474Z,36.75
2018-01-11T03:36:29.341Z,40.80
2018-01-11T03:37:03.324Z,44.92
2018-01-11T03:37:37.217Z,46.28
2018-01-11T03:38:11.072Z,41.80
2018-01-11T03:38:44.989Z,37.22
2018-01-11T03:39:18.991Z,39.28
2018-01-11T03:39:52.900Z,40.03
2018-01-11T03:40:26.898Z,43.42
2018-01-11T03:41:00.931Z,38.15
2018-01-11T03:41:34.874Z,62.58
2018-01-11T03:42:08.866Z,49.05
2018-01-11T03:42:42.744Z,44.28
2018-01-11T03:43:16.775Z,47.53
2018-01-11T03:43:50.718Z,42.70
2018-01-11T03:44:24.609Z,108.43
2018-01-11T03:44:58.654Z,48.87
2018-01-11T03:45:32.568Z,46.72
2018-01-11T03:46:06.454Z,47.03
2018-01-11T03:46:40.334Z,46.67
2018-01-11T03:47:14.195Z,40.67
2018-01-11T03:47:48.061Z,46.08
2018-01-11T03:48:21.977Z,37.75
2018-01-11T03:48:55.932Z,41.50
2018-01-11T03:49:29.845Z,41.72
2018-01-11T03:50:03.806Z,42.95
2018-01-11T03:50:37.721Z,45.83
2018-01-11T03:51:11.805Z,41.80
2018-01-11T03:51:45.730Z,41.40
2018-01-11T03:52:19.678Z,42.08
2018-01-11T03:52:53.697Z,46.35
2018-01-11T03:53:27.652Z,38.60
2018-01-11T03:54:01.701Z,54.58
2018-01-11T03:54:35.552Z,45.58
2018-01-11T03:55:09.590Z,41.85
2018-01-11T03:55:43.468Z,37.65
2018-01-11T03:56:17.463Z,54.75
2018-01-11T03:56:51.320Z,42.35
2018-01-11T03:57:25.241Z,40.15
2018-01-11T03:57:59.112Z,44.00
2018-01-11T03:58:33.187Z,45.40
2018-01-11T03:59:07.086Z,49.58
2018-01-11T03:59:40.964Z,39.80
2018-01-11T04:00:15.035Z,50.55
2018-01-11T04:00:48.925Z,43.87
2018-01-11T04:01:22.853Z,41.92
2018-01-11T04:01:56.751Z,44.33
2018-01-11T04:02:30.697Z,38.35
2018-01-11T04:03:04.573Z,38.20
2018-01-11T04:03:38.464Z,41.03
2018-01-11T04:04:12.482Z,43.15
2018-01-11T04:04:46.380Z,49.92
2018-01-11T04:05:20.253Z,38.42
2018-01-11T04:05:54.211Z,44.53
2018-01-11T04:06:28.150Z,41.92
2018-01-11T04:07:02.082Z,49.15
2018-01-11T04:07:35.988Z,51.33
2018-01-11T04:08:10.306Z,53.83
2018-01-11T04:08:44.172Z,58.13
2018-01-11T04:09:18.075Z,47.03
2018-01-11T04:09:52.076Z,44.00
2018-01-11T04:10:25.998Z,43.03
2018-01-11T04:11:00.223Z,46.72
2018-01-11T04:11:34.219Z,42.80
2018-01-11T04:12:08.186Z,46.78
2018-01-11T04:12:42.116Z,43.08
2018-01-11T04:13:16.029Z,38.35
2018-01-11T04:13:49.917Z,44.13
2018-01-11T04:14:23.814Z,41.80
2018-01-11T04:14:57.697Z,43.47
2018-01-11T04:15:31.622Z,44.97
2018-01-11T04:16:05.551Z,41.13
2018-01-11T04:16:39.448Z,46.17
2018-01-11T04:17:13.341Z,47.78
2018-01-11T04:17:47.236Z,40.90
2018-01-11T04:18:21.131Z,42.65
2018-01-11T04:18:55.011Z,41.15
2018-01-11T04:19:29.015Z,42.20
2018-01-11T04:20:02.863Z,44.75
2018-01-11T04:20:36.779Z,47.50
2018-01-11T04:21:10.652Z,43.55
2018-01-11T04:21:44.581Z,43.60
2018-01-11T04:22:18.788Z,47.62
2018-01-11T04:22:52.667Z,42.13
2018-01-11T04:23:26.576Z,45.03
2018-01-11T04:24:00.473Z,47.22
2018-01-11T04:24:34.418Z,49.13
2018-01-11T04:25:08.325Z,47.67
2018-01-11T04:25:42.323Z,41.92
2018-01-11T04:26:16.205Z,41.80
2018-01-11T04:26:50.408Z,41.47
2018-01-11T04:27:25.183Z,43.38
2018-01-11T04:28:01.894Z,44.92
2018-01-11T04:28:35.837Z,42.62
2018-01-11T04:29:10.010Z,43.80
2018-01-11T04:29:43.987Z,43.97
2018-01-11T04:30:17.962Z,44.85
2018-01-11T04:30:51.927Z,45.15
2018-01-11T04:31:25.853Z,40.20
2018-01-11T04:31:59.893Z,43.80
2018-01-11T04:32:33.921Z,42.20
2018-01-11T04:33:07.820Z,44.22
2018-01-11T04:33:41.744Z,48.90
2018-01-11T04:34:15.712Z,49.38
2018-01-11T04:34:49.880Z,44.45
2018-01-11T04:35:23.826Z,38.67
2018-01-11T04:35:57.693Z,43.30
2018-01-11T04:36:31.642Z,40.50
2018-01-11T04:37:05.546Z,43.22
2018-01-11T04:37:39.463Z,42.40
2018-01-11T04:38:13.326Z,45.65
2018-01-11T04:38:47.203Z,43.75
2018-01-11T04:39:21.174Z,46.70
2018-01-11T04:39:55.165Z,43.53
2018-01-11T04:40:29.174Z,47.90
2018-01-11T04:41:03.053Z,42.45
2018-01-11T04:41:37.160Z,43.03
2018-01-11T04:42:11.203Z,42.83
2018-01-11T04:42:45.106Z,47.38
2018-01-11T04:43:19.072Z,43.30
2018-01-11T04:43:53.110Z,45.65
2018-01-11T04:44:27.075Z,41.78
2018-01-11T04:45:01.033Z,46.15
2018-01-11T04:45:35.034Z,43.13
2018-01-11T04:46:09.001Z,43.42
2018-01-11T04:46:42.855Z,42.60
2018-01-11T04:47:16.897Z,44.35
2018-01-11T04:47:50.867Z,44.20
2018-01-11T04:48:24.785Z,41.63
2018-01-11T04:48:58.706Z,42.08
2018-01-11T04:49:32.628Z,40.55
2018-01-11T04:50:06.609Z,41.95
2018-01-11T04:50:40.643Z,43.20
2018-01-11T04:51:14.626Z,39.75
2018-01-11T04:51:48.591Z,37.22
2018-01-11T04:52:22.644Z,43.03
2018-01-11T04:52:56.554Z,45.83
2018-01-11T04:53:30.532Z,41.83
2018-01-11T04:54:04.480Z,39.60
2018-01-11T04:54:38.404Z,43.80
2018-01-11T04:55:12.453Z,46.60
2018-01-11T04:55:46.348Z,41.75
2018-01-11T04:56:20.261Z,42.38
2018-01-11T04:56:54.266Z,40.22
2018-01-11T04:57:28.243Z,45.12
2018-01-11T04:58:02.286Z,44.65
2018-01-11T04:58:36.274Z,43.95
2018-01-11T04:59:10.268Z,44.03
2018-01-11T04:59:44.189Z,41.60
2018-01-11T05:00:18.160Z,42.20
2018-01-11T05:00:53.999Z,46.05
2018-01-11T05:01:27.978Z,44.13
2018-01-11T05:02:02.012Z,47.80
2018-01-11T05:02:35.990Z,44.50
2018-01-11T05:03:10.124Z,52.75
2018-01-11T05:03:44.126Z,44.40
2018-01-11T05:04:18.269Z,46.30
2018-01-11T05:04:52.170Z,43.67
2018-01-11T05:05:26.369Z,42.67
2018-01-11T05:06:00.292Z,42.17
2018-01-11T05:06:34.263Z,39.88
2018-01-11T05:07:08.203Z,42.10
2018-01-11T05:07:42.200Z,43.03
2018-01-11T05:08:16.154Z,40.33
2018-01-11T05:08:50.092Z,46.92
2018-01-11T05:09:24.056Z,39.88
2018-01-11T05:09:57.931Z,43.30
2018-01-11T05:10:31.846Z,44.90
2018-01-11T05:11:05.897Z,42.15
2018-01-11T05:11:39.838Z,46.80
2018-01-11T05:12:13.704Z,39.97
2018-01-11T05:12:47.580Z,38.95
2018-01-11T05:13:21.630Z,46.65
2018-01-11T05:13:55.607Z,42.35
2018-01-11T05:14:29.558Z,45.40
2018-01-11T05:15:06.112Z,44.25
2018-01-11T05:15:40.155Z,39.97
2018-01-11T05:16:14.050Z,43.75
2018-01-11T05:16:47.945Z,43.38
2018-01-11T05:17:21.844Z,45.08
2018-01-11T05:17:55.857Z,44.60
2018-01-11T05:18:30.272Z,38.53
2018-01-11T05:19:04.341Z,50.28
2018-01-11T05:19:38.259Z,44.80
2018-01-11T05:20:12.169Z,47.60
2018-01-11T05:20:46.354Z,45.33
2018-01-11T05:21:20.258Z,44.55
2018-01-11T05:21:54.184Z,40.78
2018-01-11T05:22:28.117Z,43.90
2018-01-11T05:23:02.004Z,44.15
2018-01-11T05:23:36.001Z,43.53
2018-01-11T05:24:10.134Z,37.92
2018-01-11T05:24:44.061Z,43.20
2018-01-11T05:25:18.150Z,43.47
2018-01-11T05:25:52.139Z,40.75
2018-01-11T05:26:26.060Z,41.13
2018-01-11T05:27:00.100Z,38.08
2018-01-11T05:27:34.166Z,43.08
2018-01-11T05:28:08.077Z,37.47
2018-01-11T05:28:42.118Z,47.03
2018-01-11T05:29:16.081Z,41.90
2018-01-11T05:29:49.961Z,45.30
2018-01-11T05:30:23.825Z,45.17
2018-01-11T05:30:57.790Z,45.20
2018-01-11T05:31:31.714Z,41.08
2018-01-11T05:32:05.782Z,40.20
2018-01-11T05:32:39.708Z,44.15
2018-01-11T05:33:13.727Z,42.15
2018-01-11T05:33:47.602Z,42.05
2018-01-11T05:34:21.703Z,39.25
2018-01-11T05:34:56.617Z,43.45
2018-01-11T05:35:30.560Z,38.78
2018-01-11T05:36:04.532Z,40.35
2018-01-11T05:36:38.441Z,39.67
2018-01-11T05:37:12.344Z,42.05
2018-01-11T05:37:46.216Z,44.38
2018-01-11T05:38:20.109Z,44.67
2018-01-11T05:38:54.068Z,44.53
2018-01-11T05:39:27.948Z,41.40
2018-01-11T05:40:02.077Z,44.78
2018-01-11T05:40:35.956Z,40.65
2018-01-11T05:41:10.737Z,46.88
2018-01-11T05:41:44.835Z,43.00
2018-01-11T05:42:18.933Z,45.47
2018-01-11T05:42:53.040Z,41.35
2018-01-11T05:43:26.973Z,46.45
2018-01-11T05:44:00.932Z,46.47
2018-01-11T05:44:34.799Z,46.85
2018-01-11T05:45:08.996Z,40.95
2018-01-11T05:45:42.909Z,47.30
2018-01-11T05:46:16.849Z,42.47
2018-01-11T05:46:50.920Z,46.22
2018-01-11T05:47:24.882Z,38.38
2018-01-11T05:47:58.780Z,44.22
2018-01-11T05:48:32.728Z,45.45
2018-01-11T05:49:06.771Z,43.55
2018-01-11T05:49:41.022Z,39.58
2018-01-11T05:50:14.997Z,50.50
2018-01-11T05:50:49.072Z,45.45
2018-01-11T05:51:23.077Z,44.15
2018-01-11T05:51:57.088Z,45.38
2018-01-11T05:52:31.043Z,42.45
2018-01-11T05:53:05.282Z,47.05
2018-01-11T05:53:39.253Z,40.30
2018-01-11T05:54:13.157Z,38.10
2018-01-11T05:54:47.117Z,41.80
2018-01-11T05:55:21.053Z,44.25
2018-01-11T05:55:55.039Z,47.85
2018-01-11T05:56:28.937Z,44.80
2018-01-11T05:57:02.876Z,45.42
2018-01-11T05:57:36.853Z,41.60
2018-01-11T05:58:10.756Z,48.47
2018-01-11T05:58:44.769Z,48.92
2018-01-11T05:59:18.685Z,50.22
2018-01-11T05:59:52.683Z,47.92
2018-01-11T06:00:26.681Z,43.85
2018-01-11T06:01:00.620Z,48.30
2018-01-11T06:01:34.527Z,47.97
2018-01-11T06:02:08.410Z,43.97
2018-01-11T06:02:43.627Z,45.25
2018-01-11T06:03:17.592Z,46.45
2018-01-11T06:03:51.476Z,46.72
2018-01-11T06:04:25.420Z,41.30
2018-01-11T06:05:00.233Z,46.90
2018-01-11T06:05:34.182Z,42.00
2018-01-11T06:06:08.268Z,44.33
2018-01-11T06:06:42.234Z,43.95
2018-01-11T06:07:16.186Z,48.80
2018-01-11T06:07:50.118Z,44.25
2018-01-11T06:08:24.082Z,37.28
2018-01-11T06:08:57.968Z,43.40
2018-01-11T06:09:31.914Z,45.92
2018-01-11T06:10:07.754Z,47.33
2018-01-11T06:10:43.889Z,44.67
2018-01-11T06:11:17.952Z,43.65
2018-01-11T06:11:51.945Z,44.63
2018-01-11T06:12:25.880Z,39.03
2018-01-11T06:12:59.813Z,39.42
2018-01-11T06:13:33.684Z,42.67
2018-01-11T06:14:07.715Z,38.08
2018-01-11T06:14:41.769Z,40.88
2018-01-11T06:15:16.131Z,41.97
2018-01-11T06:15:50.226Z,48.70
2018-01-11T06:16:24.437Z,44.40
2018-01-11T06:16:58.360Z,39.60
2018-01-11T06:17:32.304Z,40.85
2018-01-11T06:18:06.260Z,40.75
2018-01-11T06:18:40.229Z,44.28
2018-01-11T06:19:14.977Z,42.38
2018-01-11T06:19:49.131Z,45.78
2018-01-11T06:20:23.476Z,45.85
2018-01-11T06:20:57.447Z,54.92
2018-01-11T06:21:31.334Z,50.95
2018-01-11T06:22:05.433Z,44.78
2018-01-11T06:22:39.364Z,44.13
2018-01-11T06:23:13.333Z,42.25
2018-01-11T06:23:47.214Z,45.03
2018-01-11T06:25:01.531Z,46.00
2018-01-11T06:25:35.582Z,51.20
2018-01-11T06:26:09.585Z,40.05
2018-01-11T06:26:43.502Z,39.90
2018-01-11T06:27:17.447Z,40.45
2018-01-11T06:27:51.474Z,43.67
2018-01-11T06:28:25.456Z,46.50
2018-01-11T06:28:59.473Z,45.17
2018-01-11T06:29:33.548Z,41.47
2018-01-11T06:30:07.572Z,49.08
2018-01-11T06:30:41.482Z,45.50
2018-01-11T06:31:15.369Z,43.55
2018-01-11T06:31:49.366Z,39.00
2018-01-11T06:32:23.327Z,40.70
2018-01-11T06:32:57.254Z,42.05
2018-01-11T06:33:31.221Z,34.75
2018-01-11T06:34:05.444Z,39.65
2018-01-11T06:34:39.698Z,46.60
2018-01-11T06:35:13.658Z,42.85
2018-01-11T06:35:47.553Z,41.97
2018-01-11T06:36:21.558Z,42.83
2018-01-11T06:36:55.454Z,51.67
2018-01-11T06:37:30.056Z,43.97
2018-01-11T06:38:04.054Z,39.30
2018-01-11T06:38:38.588Z,45.60
2018-01-11T06:39:12.831Z,42.90
2018-01-11T06:39:46.829Z,36.28
2018-01-11T06:40:20.741Z,40.30
2018-01-11T06:40:55.270Z,39.33
2018-01-11T06:41:30.282Z,43.03
2018-01-11T06:42:04.389Z,38.72
2018-01-11T06:42:38.568Z,42.60
2018-01-11T06:43:12.569Z,41.78
2018-01-11T06:43:46.560Z,41.90
2018-01-11T06:44:21.325Z,40.95
2018-01-11T06:44:55.482Z,40.55
2018-01-11T06:45:29.451Z,35.88
2018-01-11T06:46:03.447Z,37.10
2018-01-11T06:46:37.374Z,41.95
2018-01-11T06:47:11.707Z,42.42
2018-01-11T06:47:45.832Z,36.45
2018-01-11T06:48:20.702Z,38.58
2018-01-11T06:48:54.690Z,39.22
2018-01-11T06:49:28.589Z,39.25
2018-01-11T06:50:02.503Z,38.80
2018-01-11T06:50:36.987Z,42.58
2018-01-11T06:51:10.934Z,43.00
2018-01-11T06:51:44.938Z,37.60
2018-01-11T06:52:18.925Z,34.95
2018-01-11T06:52:52.996Z,37.00
2018-01-11T06:53:27.264Z,39.17
2018-01-11T06:54:01.215Z,44.67
2018-01-11T06:54:35.094Z,47.58
2018-01-11T06:55:09.217Z,40.22
2018-01-11T06:55:43.341Z,42.92
2018-01-11T06:56:17.482Z,38.65
2018-01-11T06:56:51.374Z,40.42
2018-01-11T06:57:25.308Z,38.60
2018-01-11T06:57:59.311Z,41.85
2018-01-11T06:58:33.224Z,38.03
2018-01-11T06:59:07.108Z,41.40
2018-01-11T06:59:43.472Z,47.00
2018-01-11T07:00:17.718Z,41.05
2018-01-11T07:00:51.737Z,41.47
2018-01-11T07:01:25.800Z,42.22
2018-01-11T07:01:59.701Z,41.37
2018-01-11T07:02:33.775Z,46.50
2018-01-11T07:03:07.891Z,41.35
2018-01-11T07:03:42.130Z,46.22
2018-01-11T07:04:16.165Z,42.25
2018-01-11T07:04:50.190Z,55.28
2018-01-11T07:05:24.145Z,50.12
2018-01-11T07:05:58.272Z,59.78
2018-01-11T07:06:32.249Z,51.30
2018-01-11T07:07:06.281Z,53.45
2018-01-11T07:07:40.297Z,51.22
2018-01-11T07:08:14.355Z,51.63
2018-01-11T07:08:48.337Z,53.58
2018-01-11T07:09:22.406Z,53.22
2018-01-11T07:09:56.343Z,50.80
2018-01-11T07:10:30.403Z,53.42
2018-01-11T07:11:04.375Z,56.92
2018-01-11T07:11:38.540Z,53.13
2018-01-11T07:12:12.505Z,50.30
2018-01-11T07:12:46.393Z,49.67
2018-01-11T07:13:20.477Z,51.83
2018-01-11T07:13:54.554Z,49.10
2018-01-11T07:14:29.005Z,54.70
2018-01-11T07:15:02.963Z,45.03
2018-01-11T07:15:36.925Z,46.08
2018-01-11T07:16:10.990Z,47.62
2018-01-11T07:16:44.891Z,42.22
2018-01-11T07:17:18.890Z,43.55
2018-01-11T07:17:52.781Z,42.17
2018-01-11T07:18:26.818Z,45.70
2018-01-11T07:19:00.696Z,44.35